createdAt,value
2024-02-24T00:02:00.100Z,8.64
2024-02-24T00:04:31.220Z,8.76
2024-02-24T00:07:02.005Z,8.85
2024-02-24T00:09:32.724Z,8.87
2024-02-24T00:12:03.474Z,8.67
2024-02-24T00:14:34.432Z,8.32
2024-02-24T00:17:05.365Z,8.03
2024-02-24T00:19:36.097Z,7.89
2024-02-24T00:22:06.909Z,7.95
2024-02-24T00:24:37.512Z,7.85
2024-02-24T00:27:08.690Z,7.74
2024-02-24T00:29:39.467Z,7.74
2024-02-24T00:32:10.978Z,7.78
2024-02-24T00:34:41.823Z,7.76
2024-02-24T00:37:12.866Z,7.74
2024-02-24T00:39:43.563Z,7.65
2024-02-24T00:42:14.309Z,7.59
2024-02-24T00:44:45.068Z,7.54
2024-02-24T00:47:15.891Z,7.61
2024-02-24T00:49:46.657Z,7.75
2024-02-24T00:52:17.372Z,7.88
2024-02-24T00:54:47.988Z,8.07
2024-02-24T00:57:18.696Z,8.24
2024-02-24T00:59:49.399Z,8.38
2024-02-24T01:02:20.089Z,8.49
2024-02-24T01:04:53.465Z,8.53
2024-02-24T01:07:24.296Z,8.58
2024-02-24T01:09:55.032Z,8.65
2024-02-24T01:12:25.703Z,8.75
2024-02-24T01:14:58.610Z,8.83
2024-02-24T01:17:29.685Z,8.87
2024-02-24T01:20:00.797Z,8.85
2024-02-24T01:22:31.446Z,8.85
2024-02-24T01:25:02.297Z,8.82
2024-02-24T01:27:32.993Z,8.69
2024-02-24T01:30:03.724Z,8.40
2024-02-24T01:32:34.455Z,8.22
2024-02-24T01:35:08.938Z,8.23
2024-02-24T01:37:40.028Z,8.33
2024-02-24T01:40:11.971Z,8.39
2024-02-24T01:42:45.343Z,8.34
2024-02-24T01:45:16.218Z,8.14
2024-02-24T01:47:47.308Z,7.91
2024-02-24T01:50:18.686Z,7.85
2024-02-24T01:52:51.430Z,7.82
2024-02-24T01:55:22.729Z,7.81
2024-02-24T01:57:55.849Z,7.91
2024-02-24T02:00:26.838Z,7.98
2024-02-24T02:02:59.368Z,7.91
2024-02-24T02:05:30.530Z,7.90
2024-02-24T02:08:01.416Z,7.81
2024-02-24T02:13:28.669Z,7.87
2024-02-24T02:16:00.522Z,7.95
2024-02-24T02:18:33.715Z,8.07
2024-02-24T02:21:07.685Z,8.18
2024-02-24T02:23:38.474Z,8.29
2024-02-24T02:26:09.480Z,8.37
2024-02-24T02:28:40.311Z,8.40
2024-02-24T02:31:10.994Z,8.20
2024-02-24T02:33:41.813Z,7.83
2024-02-24T02:36:12.727Z,7.45
2024-02-24T02:38:43.533Z,7.24
2024-02-24T02:41:14.330Z,7.30
2024-02-24T02:43:45.063Z,7.43
2024-02-24T02:46:15.928Z,7.53
2024-02-24T02:48:46.783Z,7.67
2024-02-24T02:51:17.638Z,7.65
2024-02-24T02:53:48.361Z,7.41
2024-02-24T02:56:22.102Z,7.18
2024-02-24T02:58:53.170Z,7.20
2024-02-24T03:01:24.193Z,7.35
2024-02-24T03:03:54.924Z,7.49
2024-02-24T03:06:26.341Z,7.63
2024-02-24T03:08:57.460Z,7.69
2024-02-24T03:11:28.572Z,7.77
2024-02-24T03:13:59.451Z,7.81
2024-02-24T03:16:30.177Z,7.61
2024-02-24T03:19:00.963Z,7.41
2024-02-24T03:21:33.677Z,7.17
2024-02-24T03:24:07.068Z,6.89
2024-02-24T03:26:37.895Z,6.60
2024-02-24T03:29:08.758Z,6.46
2024-02-24T03:31:39.434Z,6.35
2024-02-24T03:34:10.185Z,6.14
2024-02-24T03:36:41.017Z,5.92
2024-02-24T03:39:11.636Z,5.94
2024-02-24T03:41:42.264Z,6.13
2024-02-24T03:44:13.228Z,6.33
2024-02-24T03:46:45.112Z,6.54
2024-02-24T03:49:15.955Z,6.58
2024-02-24T03:51:46.786Z,6.43
2024-02-24T03:54:17.519Z,6.20
2024-02-24T03:56:51.246Z,5.92
2024-02-24T03:59:22.116Z,5.73
2024-02-24T04:01:53.013Z,5.73
2024-02-24T04:04:23.883Z,5.93
2024-02-24T04:06:54.646Z,6.19
2024-02-24T04:09:25.317Z,6.47
2024-02-24T04:11:55.987Z,6.73
2024-02-24T04:14:26.791Z,6.89
2024-02-24T04:16:57.687Z,7.03
2024-02-24T04:19:28.366Z,7.16
2024-02-24T04:21:59.145Z,7.27
2024-02-24T04:24:29.839Z,7.30
2024-02-24T04:27:00.485Z,7.32
2024-02-24T04:29:31.193Z,7.39
2024-02-24T04:32:02.017Z,7.41
2024-02-24T04:34:32.746Z,7.43
2024-02-24T04:37:03.581Z,7.48
2024-02-24T04:39:34.195Z,7.50
2024-02-24T04:42:05.600Z,7.52
2024-02-24T04:44:36.351Z,7.55
2024-02-24T04:47:07.446Z,7.58
2024-02-24T04:49:38.291Z,7.59
2024-02-24T04:52:09.200Z,7.59
2024-02-24T04:54:39.802Z,7.54
2024-02-24T04:57:10.436Z,7.50
2024-02-24T04:59:41.136Z,7.27
2024-02-24T05:02:11.993Z,6.88
2024-02-24T05:04:42.656Z,6.70
2024-02-24T05:07:13.626Z,6.72
2024-02-24T05:09:44.366Z,6.82
2024-02-24T05:12:15.639Z,6.88
2024-02-24T05:14:48.846Z,6.87
2024-02-24T05:17:19.608Z,6.86
2024-02-24T05:19:50.554Z,6.88
2024-02-24T05:22:21.221Z,6.92
2024-02-24T05:24:51.894Z,7.00
2024-02-24T05:27:22.604Z,7.05
2024-02-24T05:29:53.243Z,7.13
2024-02-24T05:32:24.276Z,7.16
2024-02-24T05:34:55.013Z,7.14
2024-02-24T05:37:25.744Z,7.03
2024-02-24T05:39:56.909Z,6.94
2024-02-24T05:42:29.051Z,6.79
2024-02-24T05:44:59.814Z,6.69
2024-02-24T05:47:30.660Z,6.52
2024-02-24T05:50:01.436Z,6.48
2024-02-24T05:52:32.417Z,6.55
2024-02-24T05:55:03.368Z,6.54
2024-02-24T05:57:34.124Z,6.41
2024-02-24T06:00:06.445Z,6.19
2024-02-24T06:02:57.087Z,6.24
2024-02-24T06:05:28.087Z,6.37
2024-02-24T06:07:59.132Z,6.50
2024-02-24T06:10:29.867Z,6.65
2024-02-24T06:13:01.581Z,6.70
2024-02-24T06:15:32.455Z,6.64
2024-02-24T06:18:03.358Z,6.54
2024-02-24T06:20:34.385Z,6.49
2024-02-24T06:23:05.576Z,6.54
2024-02-24T06:25:36.238Z,6.59
2024-02-24T06:28:11.895Z,6.54
2024-02-24T06:30:42.971Z,6.44
2024-02-24T06:33:13.880Z,6.40
2024-02-24T06:35:44.658Z,6.47
2024-02-24T06:38:15.590Z,6.60
2024-02-24T06:40:46.956Z,6.66
2024-02-24T06:43:17.861Z,6.62
2024-02-24T06:45:48.572Z,6.59
2024-02-24T06:48:19.395Z,6.63
2024-02-24T06:50:50.191Z,6.71
2024-02-24T06:53:21.006Z,6.84
2024-02-24T06:55:51.652Z,7.01
2024-02-24T06:58:22.915Z,7.21
2024-02-24T07:00:53.608Z,7.46
2024-02-24T07:03:24.593Z,7.75
2024-02-24T07:05:55.427Z,8.05
2024-02-24T07:08:26.249Z,8.08
2024-02-24T07:10:57.293Z,8.20
2024-02-24T07:13:28.104Z,8.41
2024-02-24T07:15:58.805Z,8.78
2024-02-24T07:18:29.579Z,9.14
2024-02-24T07:21:03.547Z,9.39
2024-02-24T07:23:34.943Z,9.63
2024-02-24T07:26:06.236Z,9.85
2024-02-24T07:28:37.081Z,10.07
2024-02-24T07:31:07.870Z,10.14
2024-02-24T07:33:38.718Z,10.25
2024-02-24T07:36:10.535Z,10.42
2024-02-24T07:38:43.883Z,10.58
2024-02-24T07:41:14.963Z,10.72
2024-02-24T07:43:45.870Z,10.87
2024-02-24T07:46:28.767Z,11.05
2024-02-24T07:49:00.819Z,11.28
2024-02-24T07:51:32.419Z,11.42
2024-02-24T07:54:03.341Z,11.46
2024-02-24T07:56:34.090Z,11.60
2024-02-24T07:59:05.028Z,11.74
2024-02-24T08:01:35.781Z,11.85
2024-02-24T08:04:07.042Z,11.92
2024-02-24T08:06:37.948Z,12.03
2024-02-24T08:09:08.778Z,12.18
2024-02-24T08:11:41.835Z,12.23
2024-02-24T08:14:13.438Z,12.28
2024-02-24T08:16:44.269Z,12.40
2024-02-24T08:19:15.065Z,12.48
2024-02-24T08:21:45.772Z,12.60
2024-02-24T08:24:17.707Z,12.72
2024-02-24T08:26:49.531Z,12.83
2024-02-24T08:29:20.358Z,12.86
2024-02-24T08:31:51.488Z,12.87
2024-02-24T08:34:22.227Z,12.93
2024-02-24T08:36:54.192Z,12.86
2024-02-24T08:39:25.020Z,12.86
2024-02-24T08:41:55.809Z,12.93
2024-02-24T08:44:26.541Z,12.94
2024-02-24T08:46:57.237Z,13.01
2024-02-24T08:49:28.025Z,13.01
2024-02-24T08:51:58.769Z,13.06
2024-02-24T08:54:29.463Z,13.10
2024-02-24T08:57:01.228Z,13.20
2024-02-24T08:59:32.688Z,13.19
2024-02-24T09:02:03.468Z,13.10
2024-02-24T09:04:34.233Z,13.02
2024-02-24T09:07:05.828Z,13.12
2024-02-24T09:09:36.766Z,13.28
2024-02-24T09:12:08.793Z,13.39
2024-02-24T09:14:39.826Z,13.52
2024-02-24T09:17:10.589Z,13.65
2024-02-24T09:19:44.312Z,13.75
2024-02-24T09:22:15.675Z,13.78
2024-02-24T09:24:46.380Z,13.91
2024-02-24T09:27:17.099Z,14.03
2024-02-24T09:29:47.844Z,14.02
2024-02-24T09:32:19.426Z,13.95
2024-02-24T09:34:50.057Z,13.94
2024-02-24T09:37:20.786Z,13.99
2024-02-24T09:39:51.526Z,14.06
2024-02-24T09:42:27.349Z,14.04
2024-02-24T09:45:03.588Z,14.06
2024-02-24T09:47:34.901Z,14.14
2024-02-24T09:50:06.370Z,14.17
2024-02-24T09:52:37.048Z,14.24
2024-02-24T09:55:09.238Z,14.30
2024-02-24T09:57:40.786Z,14.34
2024-02-24T10:00:13.891Z,14.39
2024-02-24T10:02:47.608Z,14.44
2024-02-24T10:05:19.665Z,14.48
2024-02-24T10:07:50.755Z,14.50
2024-02-24T10:10:24.884Z,14.53
2024-02-24T10:13:03.686Z,14.58
2024-02-24T10:15:36.934Z,14.63
2024-02-24T10:18:08.516Z,14.62
2024-02-24T10:20:39.601Z,14.60
2024-02-24T10:23:13.338Z,14.61
2024-02-24T10:25:42.534Z,14.68
2024-02-24T10:28:14.466Z,14.70
2024-02-24T10:30:45.118Z,14.77
2024-02-24T10:33:16.636Z,14.83
2024-02-24T10:35:52.355Z,14.87
2024-02-24T10:38:34.541Z,14.89
2024-02-24T10:41:11.972Z,14.76
2024-02-24T10:43:43.482Z,14.58
2024-02-24T10:46:14.240Z,14.38
2024-02-24T10:48:47.220Z,14.17
2024-02-24T10:51:18.217Z,13.92
2024-02-24T10:53:53.980Z,13.75
2024-02-24T10:56:25.484Z,13.78
2024-02-24T10:59:09.244Z,13.81
2024-02-24T11:01:45.583Z,13.82
2024-02-24T11:04:18.283Z,13.97
2024-02-24T11:06:50.875Z,13.96
2024-02-24T11:09:31.104Z,13.85
2024-02-24T11:12:13.785Z,13.64
2024-02-24T11:14:48.856Z,13.41
2024-02-24T11:17:48.909Z,13.28
2024-02-24T11:21:00.135Z,13.14
2024-02-24T11:23:38.060Z,13.02
2024-02-24T11:26:30.935Z,12.93
2024-02-24T11:29:08.244Z,12.81
2024-02-24T11:31:46.241Z,12.67
2024-02-24T11:34:17.060Z,12.58
2024-02-24T11:36:49.023Z,12.50
2024-02-24T11:39:21.481Z,12.55
2024-02-24T11:41:52.563Z,12.57
2024-02-24T11:44:23.470Z,12.57
2024-02-24T11:46:55.021Z,12.56
2024-02-24T11:49:27.873Z,12.51
2024-02-24T11:51:59.641Z,12.46
2024-02-24T11:54:32.371Z,12.41
2024-02-24T11:57:05.743Z,12.48
2024-02-24T11:59:35.426Z,12.75
2024-02-24T12:02:06.396Z,13.02
2024-02-24T12:04:37.502Z,13.31
2024-02-24T12:07:08.967Z,13.54
2024-02-24T12:09:39.746Z,13.72
2024-02-24T12:12:11.488Z,13.79
2024-02-24T12:14:42.674Z,13.64
2024-02-24T12:17:14.639Z,13.47
2024-02-24T12:19:46.529Z,13.29
2024-02-24T12:22:17.231Z,13.15
2024-02-24T12:24:47.955Z,12.98
2024-02-24T12:27:20.622Z,12.80
2024-02-24T12:29:52.842Z,12.67
2024-02-24T12:32:24.032Z,12.51
2024-02-24T12:35:05.500Z,12.33
2024-02-24T12:37:37.332Z,12.19
2024-02-24T12:40:26.868Z,12.15
2024-02-24T12:42:57.985Z,12.18
2024-02-24T12:45:29.030Z,12.25
2024-02-24T12:48:00.106Z,12.30
2024-02-24T12:50:30.872Z,12.37
2024-02-24T12:53:06.341Z,12.54
2024-02-24T12:55:37.761Z,12.65
2024-02-24T12:58:09.934Z,12.63
2024-02-24T13:00:40.678Z,12.56
2024-02-24T13:03:11.758Z,12.48
2024-02-24T13:05:42.932Z,12.47
2024-02-24T13:08:13.806Z,12.53
2024-02-24T13:10:45.072Z,12.56
2024-02-24T13:13:16.115Z,12.58
2024-02-24T13:15:47.703Z,12.56
2024-02-24T13:18:19.616Z,12.54
2024-02-24T13:20:50.799Z,12.50
2024-02-24T13:23:21.737Z,12.45
2024-02-24T13:25:52.493Z,12.41
2024-02-24T13:28:23.239Z,12.41
2024-02-24T13:30:53.956Z,12.53
2024-02-24T13:33:25.152Z,12.63
2024-02-24T13:35:56.347Z,12.76
2024-02-24T13:38:27.242Z,12.85
2024-02-24T13:40:58.145Z,12.84
2024-02-24T13:43:28.819Z,12.90
2024-02-24T13:45:59.700Z,12.94
2024-02-24T13:48:30.824Z,12.87
2024-02-24T13:51:01.725Z,12.77
2024-02-24T13:53:33.232Z,12.66
2024-02-24T13:56:05.133Z,12.54
2024-02-24T13:58:38.283Z,12.47
2024-02-24T14:01:09.052Z,12.48
2024-02-24T14:03:39.768Z,12.50
2024-02-24T14:06:10.700Z,12.50
2024-02-24T14:08:42.374Z,12.50
2024-02-24T14:11:13.251Z,12.50
2024-02-24T14:13:44.469Z,12.52
2024-02-24T14:16:15.336Z,12.51
2024-02-24T14:18:46.181Z,12.50
2024-02-24T14:21:17.097Z,12.48
2024-02-24T14:23:47.941Z,12.48
2024-02-24T14:26:19.067Z,12.49
2024-02-24T14:29:00.486Z,12.51
2024-02-24T14:31:33.165Z,12.51
2024-02-24T14:34:04.084Z,12.49
2024-02-24T14:36:35.029Z,12.42
2024-02-24T14:39:06.823Z,12.38
2024-02-24T14:41:37.574Z,12.37
2024-02-24T14:44:08.461Z,12.39
2024-02-24T14:46:57.694Z,12.39
2024-02-24T14:49:28.413Z,12.37
2024-02-24T14:51:59.456Z,12.38
2024-02-24T14:54:31.032Z,12.39
2024-02-24T14:57:01.899Z,12.38
2024-02-24T14:59:32.749Z,12.36
2024-02-24T15:02:03.473Z,12.35
2024-02-24T15:04:34.193Z,12.33
2024-02-24T15:07:05.946Z,12.29
2024-02-24T15:09:37.103Z,12.25
2024-02-24T15:12:09.644Z,12.19
2024-02-24T15:14:41.858Z,12.15
2024-02-24T15:17:12.646Z,12.13
2024-02-24T15:19:46.550Z,12.08
2024-02-24T15:22:17.519Z,12.02
2024-02-24T15:24:48.365Z,11.97
2024-02-24T15:27:19.385Z,11.91
2024-02-24T15:29:50.236Z,11.86
2024-02-24T15:32:23.027Z,11.81
2024-02-24T15:34:53.888Z,11.77
2024-02-24T15:37:24.856Z,11.70
2024-02-24T15:39:55.546Z,11.63
2024-02-24T15:42:26.287Z,11.56
2024-02-24T15:44:58.395Z,11.51
2024-02-24T15:47:29.358Z,11.47
2024-02-24T15:50:00.232Z,11.40
2024-02-24T15:52:30.952Z,11.36
2024-02-24T15:55:01.848Z,11.30
2024-02-24T15:57:32.553Z,11.23
2024-02-24T16:00:03.220Z,11.17
2024-02-24T16:02:53.924Z,11.10
2024-02-24T16:05:24.788Z,11.04
2024-02-24T16:07:55.593Z,10.98
2024-02-24T16:10:26.305Z,10.93
2024-02-24T16:12:57.611Z,10.89
2024-02-24T16:15:28.767Z,10.85
2024-02-24T16:17:59.624Z,10.80
2024-02-24T16:20:31.815Z,10.77
2024-02-24T16:23:03.250Z,10.72
2024-02-24T16:25:33.964Z,10.68
2024-02-24T16:28:05.216Z,10.65
2024-02-24T16:30:35.892Z,10.59
2024-02-24T16:33:07.590Z,10.54
2024-02-24T16:35:38.467Z,10.51
2024-02-24T16:38:09.358Z,10.47
2024-02-24T16:40:39.985Z,10.45
2024-02-24T16:43:10.726Z,10.44
2024-02-24T16:45:41.631Z,10.41
2024-02-24T16:48:16.150Z,10.36
2024-02-24T16:50:47.220Z,10.30
2024-02-24T16:53:18.775Z,10.27
2024-02-24T16:55:49.533Z,10.22
2024-02-24T16:58:20.345Z,10.19
2024-02-24T17:00:51.312Z,10.17
2024-02-24T17:03:22.378Z,10.14
2024-02-24T17:05:53.180Z,10.14
2024-02-24T17:08:24.125Z,10.11
2024-02-24T17:10:55.103Z,10.11
2024-02-24T17:13:25.795Z,10.07
2024-02-24T17:15:56.646Z,10.05
2024-02-24T17:18:33.656Z,10.02
2024-02-24T17:21:08.408Z,9.99
2024-02-24T17:23:41.049Z,9.96
2024-02-24T17:26:11.918Z,9.91
2024-02-24T17:28:42.621Z,9.86
2024-02-24T17:31:16.856Z,9.82
2024-02-24T17:33:48.129Z,9.79
2024-02-24T17:36:18.953Z,9.76
2024-02-24T17:38:49.618Z,9.73
2024-02-24T17:41:20.858Z,9.71
2024-02-24T17:43:51.589Z,9.67
2024-02-24T17:46:22.619Z,9.65
2024-02-24T17:48:53.414Z,9.65
2024-02-24T17:51:24.256Z,9.64
2024-02-24T17:53:55.055Z,9.63
2024-02-24T17:56:25.867Z,9.61
2024-02-24T17:58:56.704Z,9.60
2024-02-24T18:01:27.318Z,9.58
2024-02-24T18:03:59.567Z,9.56
2024-02-24T18:06:30.773Z,9.54
2024-02-24T18:09:01.653Z,9.52
2024-02-24T18:11:32.917Z,9.49
2024-02-24T18:14:03.952Z,9.47
2024-02-24T18:16:34.640Z,9.46
2024-02-24T18:19:07.811Z,9.43
2024-02-24T18:21:38.750Z,9.40
2024-02-24T18:24:10.319Z,9.37
2024-02-24T18:26:41.168Z,9.33
2024-02-24T18:29:12.042Z,9.30
2024-02-24T18:31:42.747Z,9.26
2024-02-24T18:34:13.871Z,9.24
2024-02-24T18:36:44.800Z,9.20
2024-02-24T18:39:15.614Z,9.15
2024-02-24T18:41:46.233Z,9.11
2024-02-24T18:44:17.241Z,9.06
2024-02-24T18:46:47.948Z,9.00
2024-02-24T18:49:18.811Z,8.93
2024-02-24T18:51:49.889Z,8.87
2024-02-24T18:54:20.590Z,8.81
2024-02-24T18:56:51.811Z,8.78
2024-02-24T18:59:22.666Z,8.76
2024-02-24T19:01:53.685Z,8.74
2024-02-24T19:04:24.460Z,8.71
2024-02-24T19:06:55.346Z,8.66
2024-02-24T19:09:26.158Z,8.60
2024-02-24T19:11:57.116Z,8.68
2024-02-24T19:14:27.842Z,8.74
2024-02-24T19:16:58.576Z,8.72
2024-02-24T19:19:29.336Z,8.67
2024-02-24T19:22:00.110Z,8.61
2024-02-24T19:24:30.802Z,8.55
2024-02-24T19:27:01.787Z,8.59
2024-02-24T19:29:32.469Z,8.66
2024-02-24T19:32:03.241Z,8.73
2024-02-24T19:34:34.078Z,8.79
2024-02-24T19:37:08.968Z,8.77
2024-02-24T19:39:39.897Z,8.70
2024-02-24T19:42:10.751Z,8.74
2024-02-24T19:44:41.682Z,8.84
2024-02-24T19:47:13.471Z,8.97
2024-02-24T19:49:44.904Z,9.06
2024-02-24T19:52:17.091Z,9.10
2024-02-24T19:54:51.163Z,9.18
2024-02-24T19:57:21.665Z,9.18
2024-02-24T19:59:52.538Z,9.18
2024-02-24T20:02:23.295Z,9.24
2024-02-24T20:04:53.999Z,9.28
2024-02-24T20:07:24.849Z,9.20
2024-02-24T20:09:55.711Z,9.03
2024-02-24T20:12:26.692Z,8.94
2024-02-24T20:14:57.554Z,8.95
2024-02-24T20:17:28.276Z,9.02
2024-02-24T20:19:59.162Z,9.10
2024-02-24T20:22:30.333Z,9.15
2024-02-24T20:25:01.013Z,9.15
2024-02-24T20:27:31.706Z,9.16
2024-02-24T20:30:02.603Z,9.15
2024-02-24T20:32:33.567Z,9.13
2024-02-24T20:35:05.631Z,9.11
2024-02-24T20:37:36.402Z,9.11
2024-02-24T20:40:08.934Z,9.13
2024-02-24T20:42:39.560Z,9.18
2024-02-24T20:45:12.978Z,9.24
2024-02-24T20:47:43.719Z,9.29
2024-02-24T20:50:14.915Z,9.36
2024-02-24T20:52:45.593Z,9.37
2024-02-24T20:55:16.252Z,9.35
2024-02-24T20:57:47.166Z,9.32
2024-02-24T21:00:20.388Z,9.32
2024-02-24T21:02:51.826Z,9.26
2024-02-24T21:05:22.805Z,9.23
2024-02-24T21:07:53.602Z,9.23
2024-02-24T21:10:25.430Z,9.25
2024-02-24T21:12:56.372Z,9.29
2024-02-24T21:15:27.032Z,9.29
2024-02-24T21:17:57.694Z,9.32
2024-02-24T21:20:28.443Z,9.34
2024-02-24T21:22:59.114Z,9.37
2024-02-24T21:25:30.519Z,9.39
2024-02-24T21:28:07.230Z,9.40
2024-02-24T21:30:38.162Z,9.38
2024-02-24T21:33:09.515Z,9.37
2024-02-24T21:35:41.435Z,9.35
2024-02-24T21:38:12.246Z,9.29
2024-02-24T21:40:43.436Z,9.25
2024-02-24T21:43:14.219Z,9.21
2024-02-24T21:45:46.883Z,9.17
2024-02-24T21:48:17.957Z,9.15
2024-02-24T21:50:49.999Z,9.21
2024-02-24T21:53:20.873Z,9.28
2024-02-24T21:55:51.606Z,9.27
2024-02-24T21:58:22.357Z,9.26
2024-02-24T22:00:53.462Z,9.18
2024-02-24T22:03:24.240Z,9.26
2024-02-24T22:05:55.243Z,9.36
2024-02-24T22:08:26.142Z,9.22
2024-02-24T22:10:56.837Z,9.05
2024-02-24T22:13:27.664Z,8.85
2024-02-24T22:15:59.425Z,8.67
2024-02-24T22:18:30.317Z,8.45
2024-02-24T22:21:01.108Z,8.27
2024-02-24T22:23:31.864Z,8.13
2024-02-24T22:26:02.709Z,8.04
2024-02-24T22:28:33.541Z,7.96
2024-02-24T22:31:04.540Z,7.91
2024-02-24T22:33:35.867Z,7.85
2024-02-24T22:36:07.711Z,7.78
2024-02-24T22:38:38.580Z,7.72
2024-02-24T22:41:10.241Z,7.67
2024-02-24T22:43:40.923Z,7.62
2024-02-24T22:46:11.583Z,7.57
2024-02-24T22:48:42.291Z,7.52
2024-02-24T22:51:13.141Z,7.48
2024-02-24T22:53:43.827Z,7.43
2024-02-24T22:56:14.623Z,7.41
2024-02-24T22:58:46.361Z,7.36
2024-02-24T23:01:17.547Z,7.32
2024-02-24T23:03:48.440Z,7.28
2024-02-24T23:06:19.228Z,7.25
2024-02-24T23:08:50.836Z,7.20
2024-02-24T23:11:29.841Z,7.18
2024-02-24T23:14:09.404Z,7.18
2024-02-24T23:16:40.610Z,7.19
2024-02-24T23:19:11.464Z,7.17
2024-02-24T23:21:43.554Z,7.17
2024-02-24T23:24:14.346Z,7.16
2024-02-24T23:26:45.642Z,7.15
2024-02-24T23:29:16.435Z,7.15
2024-02-24T23:31:47.320Z,7.16
2024-02-24T23:34:18.346Z,7.16
2024-02-24T23:36:49.080Z,7.16
2024-02-24T23:39:19.845Z,7.16
2024-02-24T23:41:53.571Z,7.15
2024-02-24T23:44:24.829Z,7.12
2024-02-24T23:46:55.976Z,7.09
2024-02-24T23:49:26.712Z,7.05
2024-02-24T23:51:57.590Z,7.02
2024-02-24T23:54:28.355Z,7.00
2024-02-24T23:56:59.007Z,6.97
2024-02-24T23:59:29.808Z,6.96
